sensor_id;sensor_type;location;lat;lon;timestamp;pressure;altitude;pressure_sealevel;temperature;humidity
63663;BME280;49815;51.618;0.336;2022-07-23T00:00:21;101176.38;;;18.02;42.31
63663;BME280;49815;51.618;0.336;2022-07-23T00:02:46;101170.98;;;17.97;42.43
63663;BME280;49815;51.618;0.336;2022-07-23T00:05:12;101170.15;;;17.50;43.63
63663;BME280;49815;51.618;0.336;2022-07-23T00:07:37;101169.37;;;17.40;43.99
63663;BME280;49815;51.618;0.336;2022-07-23T00:10:04;101166.00;;;17.93;43.24
63663;BME280;49815;51.618;0.336;2022-07-23T00:12:28;101171.56;;;18.17;42.44
63663;BME280;49815;51.618;0.336;2022-07-23T00:14:53;101171.55;;;18.32;41.92
63663;BME280;49815;51.618;0.336;2022-07-23T00:17:19;101174.20;;;17.75;42.63
63663;BME280;49815;51.618;0.336;2022-07-23T00:19:44;101176.02;;;17.62;42.54
63663;BME280;49815;51.618;0.336;2022-07-23T00:22:10;101175.87;;;17.53;42.93
63663;BME280;49815;51.618;0.336;2022-07-23T00:24:35;101177.44;;;17.91;42.50
63663;BME280;49815;51.618;0.336;2022-07-23T00:27:00;101176.25;;;18.03;42.37
63663;BME280;49815;51.618;0.336;2022-07-23T00:29:26;101175.23;;;18.22;42.37
63663;BME280;49815;51.618;0.336;2022-07-23T00:31:51;101172.88;;;18.17;42.57
63663;BME280;49815;51.618;0.336;2022-07-23T00:34:17;101178.92;;;18.71;41.97
63663;BME280;49815;51.618;0.336;2022-07-23T00:36:42;101180.68;;;18.62;42.34
63663;BME280;49815;51.618;0.336;2022-07-23T00:39:07;101180.83;;;18.59;42.48
63663;BME280;49815;51.618;0.336;2022-07-23T00:41:33;101180.94;;;18.49;42.73
63663;BME280;49815;51.618;0.336;2022-07-23T00:46:23;101183.89;;;18.86;42.34
63663;BME280;49815;51.618;0.336;2022-07-23T00:48:49;101186.02;;;18.80;42.13
63663;BME280;49815;51.618;0.336;2022-07-23T00:51:15;101186.80;;;19.12;42.11
63663;BME280;49815;51.618;0.336;2022-07-23T00:53:39;101184.40;;;18.35;42.54
63663;BME280;49815;51.618;0.336;2022-07-23T00:56:06;101177.75;;;18.37;42.54
63663;BME280;49815;51.618;0.336;2022-07-23T00:58:30;101177.02;;;19.04;42.26
63663;BME280;49815;51.618;0.336;2022-07-23T01:00:55;101178.43;;;19.02;41.86
63663;BME280;49815;51.618;0.336;2022-07-23T01:03:20;101180.87;;;18.47;42.13
63663;BME280;49815;51.618;0.336;2022-07-23T01:05:45;101178.03;;;19.26;42.18
63663;BME280;49815;51.618;0.336;2022-07-23T01:08:11;101177.80;;;19.04;42.41
63663;BME280;49815;51.618;0.336;2022-07-23T01:10:36;101178.34;;;18.45;42.56
63663;BME280;49815;51.618;0.336;2022-07-23T01:13:03;101178.68;;;18.78;42.11
63663;BME280;49815;51.618;0.336;2022-07-23T01:15:26;101177.20;;;18.80;42.05
63663;BME280;49815;51.618;0.336;2022-07-23T01:17:51;101176.02;;;18.66;42.23
63663;BME280;49815;51.618;0.336;2022-07-23T01:20:18;101178.99;;;18.74;42.99
63663;BME280;49815;51.618;0.336;2022-07-23T01:22:42;101180.02;;;18.39;43.16
63663;BME280;49815;51.618;0.336;2022-07-23T01:25:08;101182.62;;;18.88;42.33
63663;BME280;49815;51.618;0.336;2022-07-23T01:27:34;101182.05;;;18.66;43.04
63663;BME280;49815;51.618;0.336;2022-07-23T01:30:00;101180.86;;;18.79;42.50
63663;BME280;49815;51.618;0.336;2022-07-23T01:32:24;101178.73;;;18.98;42.74
63663;BME280;49815;51.618;0.336;2022-07-23T01:34:49;101174.88;;;18.45;42.83
63663;BME280;49815;51.618;0.336;2022-07-23T01:37:14;101169.39;;;18.15;43.48
63663;BME280;49815;51.618;0.336;2022-07-23T01:39:40;101166.66;;;17.98;44.09
63663;BME280;49815;51.618;0.336;2022-07-23T01:42:05;101170.58;;;18.08;43.53
63663;BME280;49815;51.618;0.336;2022-07-23T01:44:30;101169.76;;;18.09;43.40
63663;BME280;49815;51.618;0.336;2022-07-23T01:46:56;101166.85;;;18.45;42.97
63663;BME280;49815;51.618;0.336;2022-07-23T01:49:21;101171.76;;;18.11;42.29
63663;BME280;49815;51.618;0.336;2022-07-23T01:51:46;101167.51;;;18.28;42.91
63663;BME280;49815;51.618;0.336;2022-07-23T01:54:11;101169.16;;;17.72;43.27
63663;BME280;49815;51.618;0.336;2022-07-23T01:56:37;101166.58;;;17.72;43.39
63663;BME280;49815;51.618;0.336;2022-07-23T01:59:03;101163.99;;;17.68;43.80
63663;BME280;49815;51.618;0.336;2022-07-23T02:01:28;101162.72;;;17.85;43.44
63663;BME280;49815;51.618;0.336;2022-07-23T02:03:53;101160.62;;;17.50;43.54
63663;BME280;49815;51.618;0.336;2022-07-23T02:06:19;101160.46;;;17.19;44.17
63663;BME280;49815;51.618;0.336;2022-07-23T02:08:43;101158.78;;;17.83;43.40
63663;BME280;49815;51.618;0.336;2022-07-23T02:11:09;101158.78;;;17.42;43.35
63663;BME280;49815;51.618;0.336;2022-07-23T02:13:35;101159.93;;;17.28;42.98
63663;BME280;49815;51.618;0.336;2022-07-23T02:15:59;101157.13;;;17.48;42.56
63663;BME280;49815;51.618;0.336;2022-07-23T02:18:25;101152.53;;;18.19;42.08
63663;BME280;49815;51.618;0.336;2022-07-23T02:20:50;101156.10;;;18.20;42.05
63663;BME280;49815;51.618;0.336;2022-07-23T02:23:15;101154.59;;;17.68;43.47
63663;BME280;49815;51.618;0.336;2022-07-23T02:25:41;101156.05;;;18.39;42.29
63663;BME280;49815;51.618;0.336;2022-07-23T02:28:06;101153.26;;;17.78;42.79
63663;BME280;49815;51.618;0.336;2022-07-23T02:30:32;101155.10;;;17.77;43.02
63663;BME280;49815;51.618;0.336;2022-07-23T02:32:57;101154.98;;;17.24;43.21
63663;BME280;49815;51.618;0.336;2022-07-23T02:35:22;101155.74;;;17.20;43.57
63663;BME280;49815;51.618;0.336;2022-07-23T02:37:48;101157.47;;;17.49;43.66
63663;BME280;49815;51.618;0.336;2022-07-23T02:40:13;101155.07;;;17.07;44.73
63663;BME280;49815;51.618;0.336;2022-07-23T02:42:38;101155.79;;;16.75;44.15
63663;BME280;49815;51.618;0.336;2022-07-23T02:45:05;101156.09;;;17.21;43.92
63663;BME280;49815;51.618;0.336;2022-07-23T02:47:29;101157.62;;;17.47;43.22
63663;BME280;49815;51.618;0.336;2022-07-23T02:49:54;101159.55;;;17.02;43.93
63663;BME280;49815;51.618;0.336;2022-07-23T02:52:19;101156.62;;;16.88;43.36
63663;BME280;49815;51.618;0.336;2022-07-23T02:54:45;101157.32;;;17.05;42.95
63663;BME280;49815;51.618;0.336;2022-07-23T02:57:10;101155.63;;;17.11;43.96
63663;BME280;49815;51.618;0.336;2022-07-23T02:59:36;101159.34;;;16.51;43.84
63663;BME280;49815;51.618;0.336;2022-07-23T03:02:01;101156.99;;;17.51;44.13
63663;BME280;49815;51.618;0.336;2022-07-23T03:04:26;101159.28;;;17.23;44.36
63663;BME280;49815;51.618;0.336;2022-07-23T03:06:51;101162.17;;;17.18;43.29
63663;BME280;49815;51.618;0.336;2022-07-23T03:09:17;101164.05;;;17.44;43.98
63663;BME280;49815;51.618;0.336;2022-07-23T03:11:42;101162.61;;;17.50;43.12
63663;BME280;49815;51.618;0.336;2022-07-23T03:14:08;101161.76;;;16.73;44.28
63663;BME280;49815;51.618;0.336;2022-07-23T03:16:34;101164.51;;;17.01;44.91
63663;BME280;49815;51.618;0.336;2022-07-23T03:18:58;101166.37;;;16.89;44.98
63663;BME280;49815;51.618;0.336;2022-07-23T03:21:23;101163.48;;;17.12;44.49
63663;BME280;49815;51.618;0.336;2022-07-23T03:23:49;101159.02;;;16.91;44.97
63663;BME280;49815;51.618;0.336;2022-07-23T03:26:15;101157.45;;;17.12;44.69
63663;BME280;49815;51.618;0.336;2022-07-23T03:28:41;101164.32;;;16.92;45.09
63663;BME280;49815;51.618;0.336;2022-07-23T03:31:06;101162.41;;;17.21;45.62
63663;BME280;49815;51.618;0.336;2022-07-23T03:33:32;101160.38;;;17.22;45.46
63663;BME280;49815;51.618;0.336;2022-07-23T03:35:57;101158.09;;;17.15;45.42
63663;BME280;49815;51.618;0.336;2022-07-23T03:38:23;101159.48;;;17.31;45.13
63663;BME280;49815;51.618;0.336;2022-07-23T03:40:49;101162.60;;;17.60;45.78
63663;BME280;49815;51.618;0.336;2022-07-23T03:43:13;101159.59;;;17.57;46.00
63663;BME280;49815;51.618;0.336;2022-07-23T03:45:39;101158.75;;;17.07;46.18
63663;BME280;49815;51.618;0.336;2022-07-23T03:48:04;101155.70;;;18.07;45.24
63663;BME280;49815;51.618;0.336;2022-07-23T03:50:29;101149.93;;;17.70;45.07
63663;BME280;49815;51.618;0.336;2022-07-23T03:52:54;101151.03;;;17.45;46.12
63663;BME280;49815;51.618;0.336;2022-07-23T03:55:20;101148.50;;;16.89;46.17
63663;BME280;49815;51.618;0.336;2022-07-23T03:57:45;101143.99;;;17.27;46.14
63663;BME280;49815;51.618;0.336;2022-07-23T04:00:12;101141.81;;;17.21;45.67
63663;BME280;49815;51.618;0.336;2022-07-23T04:02:36;101144.32;;;17.19;45.63
63663;BME280;49815;51.618;0.336;2022-07-23T04:05:02;101149.55;;;17.44;46.67
63663;BME280;49815;51.618;0.336;2022-07-23T04:07:26;101153.15;;;17.46;45.43
63663;BME280;49815;51.618;0.336;2022-07-23T04:09:53;101150.53;;;17.75;45.20
63663;BME280;49815;51.618;0.336;2022-07-23T04:12:19;101152.59;;;17.83;45.25
63663;BME280;49815;51.618;0.336;2022-07-23T04:14:43;101152.42;;;17.99;45.75
63663;BME280;49815;51.618;0.336;2022-07-23T04:17:08;101152.41;;;17.88;45.45
63663;BME280;49815;51.618;0.336;2022-07-23T04:19:35;101152.75;;;18.07;45.70
63663;BME280;49815;51.618;0.336;2022-07-23T04:21:59;101152.90;;;17.93;45.54
63663;BME280;49815;51.618;0.336;2022-07-23T04:24:25;101155.44;;;18.49;44.72
63663;BME280;49815;51.618;0.336;2022-07-23T04:26:50;101156.05;;;18.11;45.33
63663;BME280;49815;51.618;0.336;2022-07-23T04:29:15;101153.81;;;18.42;45.17
63663;BME280;49815;51.618;0.336;2022-07-23T04:31:40;101151.76;;;17.89;45.33
63663;BME280;49815;51.618;0.336;2022-07-23T04:34:05;101154.84;;;17.96;45.28
63663;BME280;49815;51.618;0.336;2022-07-23T04:36:31;101157.46;;;17.80;45.48
63663;BME280;49815;51.618;0.336;2022-07-23T04:38:56;101160.91;;;18.11;45.18
63663;BME280;49815;51.618;0.336;2022-07-23T04:41:21;101158.69;;;18.26;45.18
63663;BME280;49815;51.618;0.336;2022-07-23T04:43:47;101157.73;;;17.55;46.50
63663;BME280;49815;51.618;0.336;2022-07-23T04:46:13;101156.53;;;17.97;45.91
63663;BME280;49815;51.618;0.336;2022-07-23T04:48:38;101158.93;;;18.13;45.65
63663;BME280;49815;51.618;0.336;2022-07-23T04:51:04;101156.83;;;18.41;45.66
63663;BME280;49815;51.618;0.336;2022-07-23T04:53:29;101156.63;;;18.44;45.37
63663;BME280;49815;51.618;0.336;2022-07-23T04:55:54;101158.55;;;18.95;44.60
63663;BME280;49815;51.618;0.336;2022-07-23T04:58:20;101159.26;;;18.41;45.60
63663;BME280;49815;51.618;0.336;2022-07-23T05:00:46;101153.87;;;17.70;46.87
63663;BME280;49815;51.618;0.336;2022-07-23T05:03:11;101155.57;;;18.22;46.31
63663;BME280;49815;51.618;0.336;2022-07-23T05:05:36;101156.79;;;18.56;45.62
63663;BME280;49815;51.618;0.336;2022-07-23T05:08:02;101157.72;;;18.87;46.00
63663;BME280;49815;51.618;0.336;2022-07-23T05:10:27;101156.32;;;18.63;45.81
63663;BME280;49815;51.618;0.336;2022-07-23T05:12:53;101158.33;;;19.10;44.91
63663;BME280;49815;51.618;0.336;2022-07-23T05:15:19;101161.09;;;19.11;45.00
63663;BME280;49815;51.618;0.336;2022-07-23T05:17:43;101156.08;;;18.96;44.97
63663;BME280;49815;51.618;0.336;2022-07-23T05:20:09;101158.07;;;18.79;44.48
63663;BME280;49815;51.618;0.336;2022-07-23T05:22:36;101160.05;;;19.13;44.13
63663;BME280;49815;51.618;0.336;2022-07-23T05:25:00;101158.60;;;19.07;44.50
63663;BME280;49815;51.618;0.336;2022-07-23T05:27:25;101158.73;;;18.73;45.39
63663;BME280;49815;51.618;0.336;2022-07-23T05:29:50;101159.15;;;18.71;45.27
63663;BME280;49815;51.618;0.336;2022-07-23T05:32:15;101162.59;;;19.30;44.93
63663;BME280;49815;51.618;0.336;2022-07-23T05:34:41;101165.77;;;19.14;45.26
63663;BME280;49815;51.618;0.336;2022-07-23T05:37:07;101162.59;;;19.40;44.21
63663;BME280;49815;51.618;0.336;2022-07-23T05:39:32;101164.87;;;19.68;44.34
63663;BME280;49815;51.618;0.336;2022-07-23T05:41:57;101163.27;;;19.59;44.03
63663;BME280;49815;51.618;0.336;2022-07-23T05:44:22;101168.31;;;19.97;43.08
63663;BME280;49815;51.618;0.336;2022-07-23T05:46:48;101169.48;;;20.04;43.18
63663;BME280;49815;51.618;0.336;2022-07-23T05:49:13;101174.17;;;18.31;45.97
63663;BME280;49815;51.618;0.336;2022-07-23T05:51:39;101176.26;;;18.38;46.43
63663;BME280;49815;51.618;0.336;2022-07-23T05:54:05;101179.68;;;19.04;44.67
63663;BME280;49815;51.618;0.336;2022-07-23T05:56:29;101179.83;;;18.90;45.85
63663;BME280;49815;51.618;0.336;2022-07-23T05:58:55;101175.56;;;19.80;43.87
63663;BME280;49815;51.618;0.336;2022-07-23T06:01:20;101175.07;;;18.42;46.02
63663;BME280;49815;51.618;0.336;2022-07-23T06:03:45;101169.69;;;17.01;48.90
63663;BME280;49815;51.618;0.336;2022-07-23T06:06:11;101167.36;;;17.78;48.32
63663;BME280;49815;51.618;0.336;2022-07-23T06:08:37;101166.81;;;16.77;49.74
63663;BME280;49815;51.618;0.336;2022-07-23T06:11:03;101167.87;;;16.98;50.37
63663;BME280;49815;51.618;0.336;2022-07-23T06:13:27;101166.25;;;17.22;49.53
63663;BME280;49815;51.618;0.336;2022-07-23T06:15:52;101166.30;;;16.65;51.13
63663;BME280;49815;51.618;0.336;2022-07-23T06:18:18;101164.07;;;16.55;51.25
63663;BME280;49815;51.618;0.336;2022-07-23T06:20:43;101160.56;;;17.56;49.48
63663;BME280;49815;51.618;0.336;2022-07-23T06:23:08;101155.19;;;17.57;48.58
63663;BME280;49815;51.618;0.336;2022-07-23T06:25:35;101156.93;;;16.41;51.74
63663;BME280;49815;51.618;0.336;2022-07-23T06:27:59;101154.46;;;17.34;50.07
63663;BME280;49815;51.618;0.336;2022-07-23T06:30:24;101159.71;;;17.41;50.07
63663;BME280;49815;51.618;0.336;2022-07-23T06:32:50;101162.48;;;16.97;51.20
63663;BME280;49815;51.618;0.336;2022-07-23T06:35:17;101157.68;;;18.67;47.07
63663;BME280;49815;51.618;0.336;2022-07-23T06:37:42;101158.19;;;17.10;49.62
63663;BME280;49815;51.618;0.336;2022-07-23T06:40:09;101153.60;;;18.14;48.30
63663;BME280;49815;51.618;0.336;2022-07-23T06:42:33;101156.38;;;18.58;46.80
63663;BME280;49815;51.618;0.336;2022-07-23T06:44:58;101155.87;;;19.55;45.40
63663;BME280;49815;51.618;0.336;2022-07-23T06:47:23;101159.39;;;18.64;47.18
63663;BME280;49815;51.618;0.336;2022-07-23T06:49:50;101159.51;;;19.80;46.01
63663;BME280;49815;51.618;0.336;2022-07-23T06:52:14;101163.95;;;18.49;47.78
63663;BME280;49815;51.618;0.336;2022-07-23T06:54:40;101159.22;;;19.70;45.21
63663;BME280;49815;51.618;0.336;2022-07-23T06:57:05;101151.49;;;21.55;41.32
63663;BME280;49815;51.618;0.336;2022-07-23T06:59:30;101152.68;;;21.04;42.50
63663;BME280;49815;51.618;0.336;2022-07-23T07:01:56;101156.48;;;20.81;42.33
63663;BME280;49815;51.618;0.336;2022-07-23T07:04:21;101155.19;;;21.95;39.17
63663;BME280;49815;51.618;0.336;2022-07-23T07:06:47;101155.28;;;22.79;39.07
63663;BME280;49815;51.618;0.336;2022-07-23T07:09:11;101153.84;;;22.28;38.10
63663;BME280;49815;51.618;0.336;2022-07-23T07:11:36;101157.00;;;22.45;37.64
63663;BME280;49815;51.618;0.336;2022-07-23T07:14:02;101162.14;;;21.46;39.61
63663;BME280;49815;51.618;0.336;2022-07-23T07:16:27;101165.18;;;21.14;41.17
63663;BME280;49815;51.618;0.336;2022-07-23T07:18:52;101160.04;;;24.78;35.73
63663;BME280;49815;51.618;0.336;2022-07-23T07:21:17;101161.49;;;26.34;33.38
63663;BME280;49815;51.618;0.336;2022-07-23T07:23:42;101167.98;;;21.11;39.94
63663;BME280;49815;51.618;0.336;2022-07-23T07:26:08;101174.92;;;21.77;39.92
63663;BME280;49815;51.618;0.336;2022-07-23T07:28:32;101168.11;;;26.84;32.48
63663;BME280;49815;51.618;0.336;2022-07-23T07:30:58;101171.58;;;24.43;34.58
63663;BME280;49815;51.618;0.336;2022-07-23T07:33:23;101175.53;;;24.56;33.99
63663;BME280;49815;51.618;0.336;2022-07-23T07:35:49;101175.56;;;23.23;36.10
63663;BME280;49815;51.618;0.336;2022-07-23T07:38:14;101177.72;;;19.90;41.66
63663;BME280;49815;51.618;0.336;2022-07-23T07:40:39;101176.18;;;20.69;40.20
63663;BME280;49815;51.618;0.336;2022-07-23T07:43:04;101172.86;;;20.71;40.91
63663;BME280;49815;51.618;0.336;2022-07-23T07:45:29;101177.51;;;19.68;43.06
63663;BME280;49815;51.618;0.336;2022-07-23T07:47:54;101180.27;;;19.01;43.89
63663;BME280;49815;51.618;0.336;2022-07-23T07:50:20;101180.17;;;18.74;45.81
63663;BME280;49815;51.618;0.336;2022-07-23T07:52:44;101172.94;;;19.83;42.99
63663;BME280;49815;51.618;0.336;2022-07-23T07:55:10;101180.20;;;18.46;44.92
63663;BME280;49815;51.618;0.336;2022-07-23T07:57:37;101179.22;;;18.84;45.71
63663;BME280;49815;51.618;0.336;2022-07-23T08:00:00;101174.53;;;19.31;45.08
63663;BME280;49815;51.618;0.336;2022-07-23T08:02:26;101175.36;;;19.91;43.29
63663;BME280;49815;51.618;0.336;2022-07-23T08:04:51;101169.03;;;20.13;41.04
63663;BME280;49815;51.618;0.336;2022-07-23T08:07:16;101170.09;;;19.68;42.26
63663;BME280;49815;51.618;0.336;2022-07-23T08:09:41;101159.82;;;20.94;39.99
63663;BME280;49815;51.618;0.336;2022-07-23T08:12:07;101156.87;;;20.61;40.12
63663;BME280;49815;51.618;0.336;2022-07-23T08:14:32;101154.79;;;21.16;39.27
63663;BME280;49815;51.618;0.336;2022-07-23T08:16:58;101162.98;;;19.82;41.87
63663;BME280;49815;51.618;0.336;2022-07-23T08:19:23;101159.38;;;19.84;40.89
63663;BME280;49815;51.618;0.336;2022-07-23T08:21:48;101150.25;;;21.02;39.28
63663;BME280;49815;51.618;0.336;2022-07-23T08:24:13;101156.47;;;19.83;40.29
63663;BME280;49815;51.618;0.336;2022-07-23T08:26:40;101152.94;;;19.79;40.96
63663;BME280;49815;51.618;0.336;2022-07-23T08:29:05;101168.87;;;18.83;42.56
63663;BME280;49815;51.618;0.336;2022-07-23T08:31:30;101168.37;;;20.15;41.78
63663;BME280;49815;51.618;0.336;2022-07-23T08:33:55;101161.97;;;19.69;41.24
63663;BME280;49815;51.618;0.336;2022-07-23T08:36:20;101157.76;;;20.59;40.78
63663;BME280;49815;51.618;0.336;2022-07-23T08:38:45;101158.46;;;20.19;40.62
63663;BME280;49815;51.618;0.336;2022-07-23T08:41:11;101163.07;;;19.87;40.65
63663;BME280;49815;51.618;0.336;2022-07-23T08:43:36;101163.24;;;19.54;41.61
63663;BME280;49815;51.618;0.336;2022-07-23T08:46:02;101160.41;;;19.33;41.24
63663;BME280;49815;51.618;0.336;2022-07-23T08:48:27;101160.44;;;18.96;41.79
63663;BME280;49815;51.618;0.336;2022-07-23T08:50:52;101153.13;;;20.86;37.93
63663;BME280;49815;51.618;0.336;2022-07-23T08:53:17;101149.16;;;20.73;37.81
63663;BME280;49815;51.618;0.336;2022-07-23T08:55:43;101151.86;;;20.55;38.58
63663;BME280;49815;51.618;0.336;2022-07-23T08:58:06;101151.88;;;20.37;38.83
63663;BME280;49815;51.618;0.336;2022-07-23T09:00:32;101155.82;;;20.40;39.69
63663;BME280;49815;51.618;0.336;2022-07-23T09:02:57;101153.94;;;20.59;39.27
63663;BME280;49815;51.618;0.336;2022-07-23T09:05:22;101155.04;;;20.27;38.69
63663;BME280;49815;51.618;0.336;2022-07-23T09:10:12;101143.58;;;21.79;37.54
63663;BME280;49815;51.618;0.336;2022-07-23T09:12:38;101144.17;;;19.88;38.17
63663;BME280;49815;51.618;0.336;2022-07-23T09:15:05;101138.99;;;20.86;37.58
63663;BME280;49815;51.618;0.336;2022-07-23T09:17:38;101142.33;;;22.29;35.38
63663;BME280;49815;51.618;0.336;2022-07-23T09:22:20;101143.62;;;20.11;39.11
63663;BME280;49815;51.618;0.336;2022-07-23T09:27:08;101141.23;;;19.66;39.06
63663;BME280;49815;51.618;0.336;2022-07-23T09:29:35;101149.39;;;19.94;38.69
63663;BME280;49815;51.618;0.336;2022-07-23T09:32:00;101151.70;;;19.62;39.24
63663;BME280;49815;51.618;0.336;2022-07-23T09:34:26;101144.77;;;20.38;38.25
63663;BME280;49815;51.618;0.336;2022-07-23T09:36:52;101140.76;;;21.09;37.02
63663;BME280;49815;51.618;0.336;2022-07-23T09:39:21;101144.28;;;21.22;36.14
63663;BME280;49815;51.618;0.336;2022-07-23T09:41:42;101145.86;;;21.37;34.66
63663;BME280;49815;51.618;0.336;2022-07-23T09:44:08;101147.89;;;20.22;35.70
63663;BME280;49815;51.618;0.336;2022-07-23T09:46:30;101149.92;;;22.02;34.55
63663;BME280;49815;51.618;0.336;2022-07-23T09:48:56;101156.32;;;20.90;35.73
63663;BME280;49815;51.618;0.336;2022-07-23T09:51:20;101160.43;;;21.71;34.93
63663;BME280;49815;51.618;0.336;2022-07-23T09:53:45;101159.95;;;20.85;36.73
63663;BME280;49815;51.618;0.336;2022-07-23T09:56:12;101155.10;;;20.73;35.43
63663;BME280;49815;51.618;0.336;2022-07-23T09:58:40;101161.18;;;20.69;35.73
63663;BME280;49815;51.618;0.336;2022-07-23T10:01:01;101162.44;;;21.71;34.52
63663;BME280;49815;51.618;0.336;2022-07-23T10:03:26;101155.93;;;22.19;33.32
63663;BME280;49815;51.618;0.336;2022-07-23T10:05:52;101159.34;;;21.07;33.01
63663;BME280;49815;51.618;0.336;2022-07-23T10:08:18;101166.44;;;20.30;34.35
63663;BME280;49815;51.618;0.336;2022-07-23T10:10:44;101158.93;;;23.61;30.18
63663;BME280;49815;51.618;0.336;2022-07-23T10:13:08;101149.70;;;24.78;28.19
63663;BME280;49815;51.618;0.336;2022-07-23T10:15:35;101157.42;;;24.72;27.76
63663;BME280;49815;51.618;0.336;2022-07-23T10:17:58;101151.29;;;25.99;25.99
63663;BME280;49815;51.618;0.336;2022-07-23T10:20:23;101152.97;;;25.65;26.07
63663;BME280;49815;51.618;0.336;2022-07-23T10:22:55;101151.38;;;26.06;25.41
63663;BME280;49815;51.618;0.336;2022-07-23T10:25:26;101151.25;;;26.12;25.67
63663;BME280;49815;51.618;0.336;2022-07-23T10:27:51;101145.79;;;26.39;25.16
63663;BME280;49815;51.618;0.336;2022-07-23T10:30:07;101148.46;;;24.77;25.35
63663;BME280;49815;51.618;0.336;2022-07-23T10:32:37;101151.93;;;25.12;26.05
63663;BME280;49815;51.618;0.336;2022-07-23T10:35:01;101148.58;;;24.29;26.49
63663;BME280;49815;51.618;0.336;2022-07-23T10:37:24;101144.50;;;24.73;26.38
63663;BME280;49815;51.618;0.336;2022-07-23T10:39:45;101141.03;;;25.85;26.15
63663;BME280;49815;51.618;0.336;2022-07-23T10:42:12;101142.12;;;26.19;25.81
63663;BME280;49815;51.618;0.336;2022-07-23T10:44:39;101142.16;;;26.43;24.61
63663;BME280;49815;51.618;0.336;2022-07-23T10:47:01;101138.77;;;26.93;24.40
63663;BME280;49815;51.618;0.336;2022-07-23T10:49:26;101155.06;;;23.76;27.57
63663;BME280;49815;51.618;0.336;2022-07-23T10:54:20;101146.04;;;22.76;28.28
63663;BME280;49815;51.618;0.336;2022-07-23T10:56:50;101144.53;;;22.54;28.55
63663;BME280;49815;51.618;0.336;2022-07-23T10:59:06;101143.35;;;22.02;29.66
63663;BME280;49815;51.618;0.336;2022-07-23T11:01:32;101132.90;;;23.12;28.23
63663;BME280;49815;51.618;0.336;2022-07-23T11:03:57;101128.61;;;22.61;28.41
63663;BME280;49815;51.618;0.336;2022-07-23T11:06:20;101132.87;;;22.58;28.33
63663;BME280;49815;51.618;0.336;2022-07-23T11:08:45;101132.17;;;23.10;27.87
63663;BME280;49815;51.618;0.336;2022-07-23T11:11:11;101127.09;;;23.41;27.01
63663;BME280;49815;51.618;0.336;2022-07-23T11:13:41;101130.80;;;23.30;26.95
63663;BME280;49815;51.618;0.336;2022-07-23T11:16:11;101122.95;;;23.25;27.00
63663;BME280;49815;51.618;0.336;2022-07-23T11:20:50;101127.31;;;23.00;27.20
63663;BME280;49815;51.618;0.336;2022-07-23T11:23:15;101126.11;;;23.11;27.39
63663;BME280;49815;51.618;0.336;2022-07-23T11:25:41;101125.58;;;22.47;28.25
63663;BME280;49815;51.618;0.336;2022-07-23T11:28:13;101129.73;;;23.18;27.83
63663;BME280;49815;51.618;0.336;2022-07-23T11:30:41;101129.95;;;23.19;28.46
63663;BME280;49815;51.618;0.336;2022-07-23T11:35:24;101127.72;;;22.92;28.02
63663;BME280;49815;51.618;0.336;2022-07-23T11:37:46;101129.70;;;22.91;27.98
63663;BME280;49815;51.618;0.336;2022-07-23T11:40:12;101131.09;;;23.63;26.66
63663;BME280;49815;51.618;0.336;2022-07-23T11:42:37;101121.51;;;22.67;26.85
63663;BME280;49815;51.618;0.336;2022-07-23T11:45:01;101121.01;;;23.50;26.32
63663;BME280;49815;51.618;0.336;2022-07-23T11:47:27;101122.03;;;23.50;26.30
63663;BME280;49815;51.618;0.336;2022-07-23T11:49:53;101121.64;;;23.02;26.12
63663;BME280;49815;51.618;0.336;2022-07-23T11:52:16;101115.24;;;23.28;26.93
63663;BME280;49815;51.618;0.336;2022-07-23T11:54:47;101123.75;;;23.21;27.59
63663;BME280;49815;51.618;0.336;2022-07-23T11:57:06;101112.87;;;22.87;27.77
63663;BME280;49815;51.618;0.336;2022-07-23T11:59:33;101105.15;;;25.28;25.18
63663;BME280;49815;51.618;0.336;2022-07-23T12:01:57;101104.24;;;24.35;24.51
63663;BME280;49815;51.618;0.336;2022-07-23T12:04:21;101098.41;;;24.20;24.66
63663;BME280;49815;51.618;0.336;2022-07-23T12:06:46;101097.34;;;25.17;25.10
63663;BME280;49815;51.618;0.336;2022-07-23T12:09:11;101100.26;;;23.95;24.85
63663;BME280;49815;51.618;0.336;2022-07-23T12:11:36;101093.10;;;25.47;25.04
63663;BME280;49815;51.618;0.336;2022-07-23T12:14:01;101097.11;;;23.82;24.58
63663;BME280;49815;51.618;0.336;2022-07-23T12:16:26;101108.10;;;23.22;25.56
63663;BME280;49815;51.618;0.336;2022-07-23T12:18:51;101099.09;;;23.04;25.84
63663;BME280;49815;51.618;0.336;2022-07-23T12:21:16;101089.22;;;24.73;24.19
63663;BME280;49815;51.618;0.336;2022-07-23T12:23:41;101085.29;;;24.24;24.96
63663;BME280;49815;51.618;0.336;2022-07-23T12:26:06;101091.02;;;25.40;23.61
63663;BME280;49815;51.618;0.336;2022-07-23T12:28:32;101089.41;;;24.63;24.59
63663;BME280;49815;51.618;0.336;2022-07-23T12:30:57;101093.88;;;23.62;25.44
63663;BME280;49815;51.618;0.336;2022-07-23T12:33:23;101103.78;;;22.89;25.97
63663;BME280;49815;51.618;0.336;2022-07-23T12:35:47;101101.41;;;23.79;25.10
63663;BME280;49815;51.618;0.336;2022-07-23T12:38:12;101102.68;;;23.72;25.78
63663;BME280;49815;51.618;0.336;2022-07-23T12:40:42;101090.70;;;22.75;26.30
63663;BME280;49815;51.618;0.336;2022-07-23T12:43:03;101085.67;;;23.69;25.54
63663;BME280;49815;51.618;0.336;2022-07-23T12:45:27;101085.15;;;24.20;25.38
63663;BME280;49815;51.618;0.336;2022-07-23T12:47:59;101086.69;;;23.95;26.56
63663;BME280;49815;51.618;0.336;2022-07-23T12:52:42;101089.24;;;24.12;25.60
63663;BME280;49815;51.618;0.336;2022-07-23T12:57:44;101090.25;;;23.73;26.20
63663;BME280;49815;51.618;0.336;2022-07-23T13:02:22;101070.83;;;24.48;24.69